createdAt,value
2022-11-16T00:02:14.515Z,94817.25
2022-11-16T00:04:41.621Z,94805.50
2022-11-16T00:07:08.749Z,94802.91
2022-11-16T00:09:35.385Z,94804.66
2022-11-16T00:12:05.228Z,94794.78
2022-11-16T00:14:33.941Z,94789.53
2022-11-16T00:17:01.413Z,94769.00
2022-11-16T00:19:28.569Z,94739.88
2022-11-16T00:21:55.419Z,94750.81
2022-11-16T00:24:23.386Z,94744.47
2022-11-16T00:26:51.142Z,94759.09
2022-11-16T00:29:24.187Z,94784.72
2022-11-16T00:31:52.221Z,94757.81
2022-11-16T00:34:21.971Z,94763.25
2022-11-16T00:36:48.750Z,94766.47
2022-11-16T00:39:16.605Z,94763.38
2022-11-16T00:41:46.271Z,94781.25
2022-11-16T00:44:13.242Z,94785.94
2022-11-16T00:46:40.334Z,94779.28
2022-11-16T00:49:08.063Z,94794.38
2022-11-16T00:51:36.107Z,94786.81
2022-11-16T00:54:04.935Z,94776.47
2022-11-16T00:56:34.971Z,94789.00
2022-11-16T00:59:01.696Z,94789.81
2022-11-16T01:01:28.335Z,94805.47
2022-11-16T01:03:55.148Z,94793.34
2022-11-16T01:06:23.361Z,94800.72
2022-11-16T01:08:50.444Z,94794.97
2022-11-16T01:11:36.163Z,94794.63
2022-11-16T01:14:05.065Z,94794.63
2022-11-16T01:16:31.982Z,94794.47
2022-11-16T01:18:58.832Z,94788.31
2022-11-16T01:21:25.735Z,94803.22
2022-11-16T01:23:52.643Z,94776.63
2022-11-16T01:26:19.367Z,94758.13
2022-11-16T01:28:46.028Z,94752.91
2022-11-16T01:31:13.360Z,94764.13
2022-11-16T01:33:41.664Z,94761.03
2022-11-16T01:36:16.515Z,94733.66
2022-11-16T01:38:45.626Z,94706.13
2022-11-16T01:41:17.334Z,94736.47
2022-11-16T01:44:14.981Z,94729.72
2022-11-16T01:46:53.058Z,94726.84
2022-11-16T01:49:25.559Z,94745.88
2022-11-16T01:52:00.604Z,94752.28
2022-11-16T01:54:30.951Z,94759.56
2022-11-16T01:57:02.912Z,94764.28
2022-11-16T01:59:42.323Z,94751.81
2022-11-16T02:02:15.405Z,94704.59
2022-11-16T02:04:43.515Z,94737.06
2022-11-16T02:07:31.339Z,94729.06
2022-11-16T02:10:13.698Z,94714.97
2022-11-16T02:13:12.379Z,94741.03
2022-11-16T02:15:49.616Z,94733.66
2022-11-16T02:18:30.166Z,94745.41
2022-11-16T02:21:03.667Z,94744.69
2022-11-16T02:23:48.497Z,94747.03
2022-11-16T02:26:33.245Z,94739.97
2022-11-16T02:29:30.901Z,94739.91
2022-11-16T02:32:01.485Z,94754.00
2022-11-16T02:34:37.497Z,94748.25
2022-11-16T02:37:07.669Z,94742.03
2022-11-16T02:39:38.865Z,94739.03
2022-11-16T02:42:11.106Z,94746.31
2022-11-16T02:44:44.748Z,94744.28
2022-11-16T02:47:18.099Z,94708.16
2022-11-16T02:49:54.498Z,94700.06
2022-11-16T02:52:23.157Z,94709.28
2022-11-16T02:54:49.890Z,94710.72
2022-11-16T02:57:29.630Z,94718.03
2022-11-16T02:59:59.081Z,94729.09
2022-11-16T03:02:43.303Z,94701.81
2022-11-16T03:05:18.533Z,94719.06
2022-11-16T03:08:07.189Z,94710.41
2022-11-16T03:10:57.224Z,94684.69
2022-11-16T03:13:28.359Z,94712.06
2022-11-16T03:15:56.490Z,94734.16
2022-11-16T03:18:28.988Z,94720.66
2022-11-16T03:21:08.632Z,94733.38
2022-11-16T03:23:35.599Z,94741.28
2022-11-16T03:26:07.291Z,94720.34
2022-11-16T03:28:42.099Z,94720.59
2022-11-16T03:31:15.144Z,94728.66
2022-11-16T03:33:52.898Z,94739.16
2022-11-16T03:36:31.208Z,94727.66
2022-11-16T03:39:03.098Z,94729.44
2022-11-16T03:41:35.483Z,94738.28
2022-11-16T03:44:02.618Z,94749.69
2022-11-16T03:46:29.264Z,94738.25
2022-11-16T03:48:58.026Z,94737.84
2022-11-16T03:51:27.521Z,94756.97
2022-11-16T03:53:54.763Z,94743.69
2022-11-16T03:56:21.582Z,94755.97
2022-11-16T03:58:48.332Z,94764.13
2022-11-16T04:01:15.052Z,94792.88
2022-11-16T04:03:42.157Z,94790.44
2022-11-16T04:06:29.077Z,94803.75
2022-11-16T04:09:14.205Z,94806.22
2022-11-16T04:11:59.635Z,94786.38
2022-11-16T04:14:46.350Z,94800.97
2022-11-16T04:17:36.637Z,94800.41
2022-11-16T04:20:23.345Z,94804.09
2022-11-16T04:23:29.409Z,94804.78
2022-11-16T04:25:56.357Z,94807.59
2022-11-16T04:28:28.664Z,94800.47
2022-11-16T04:31:20.272Z,94817.84
2022-11-16T04:34:16.327Z,94812.06
2022-11-16T04:37:06.561Z,94810.53
2022-11-16T04:39:33.157Z,94806.22
2022-11-16T04:42:14.870Z,94815.81
2022-11-16T04:45:01.783Z,94815.81
2022-11-16T04:47:35.200Z,94808.69
2022-11-16T04:50:06.297Z,94823.66
2022-11-16T04:52:35.847Z,94830.22
2022-11-16T04:55:09.496Z,94814.09
2022-11-16T04:57:44.168Z,94823.09
2022-11-16T05:00:19.133Z,94826.00
2022-11-16T05:02:48.864Z,94833.72
2022-11-16T05:05:16.415Z,94830.16
2022-11-16T05:07:46.502Z,94829.00
2022-11-16T05:10:27.574Z,94822.69
2022-11-16T05:12:55.335Z,94812.34
2022-11-16T05:15:23.439Z,94819.38
2022-11-16T05:17:57.525Z,94852.91
2022-11-16T05:20:47.067Z,94828.94
2022-11-16T05:23:34.249Z,94839.56
2022-11-16T05:26:07.382Z,94839.41
2022-11-16T05:28:37.607Z,94830.16
2022-11-16T05:31:04.777Z,94825.78
2022-11-16T05:33:35.264Z,94836.56
2022-11-16T05:36:03.199Z,94854.38
2022-11-16T05:38:30.764Z,94851.69
2022-11-16T05:43:59.752Z,94859.31
2022-11-16T05:46:33.661Z,94835.59
2022-11-16T05:49:18.420Z,94849.78
2022-11-16T05:51:46.791Z,94852.72
2022-11-16T05:54:21.215Z,94831.06
2022-11-16T05:56:49.303Z,94851.41
2022-11-16T05:59:20.163Z,94856.75
2022-11-16T06:01:50.498Z,94848.34
2022-11-16T06:04:24.042Z,94869.41
2022-11-16T06:06:50.763Z,94843.84
2022-11-16T06:09:18.539Z,94845.16
2022-11-16T06:11:46.330Z,94851.88
2022-11-16T06:14:13.042Z,94815.78
2022-11-16T06:16:39.630Z,94845.88
2022-11-16T06:19:08.787Z,94862.25
2022-11-16T06:21:36.336Z,94842.16
2022-11-16T06:24:09.038Z,94843.44
2022-11-16T06:26:37.002Z,94843.59
2022-11-16T06:29:04.314Z,94865.53
2022-11-16T06:31:31.403Z,94850.72
2022-11-16T06:34:00.592Z,94856.78
2022-11-16T06:36:29.173Z,94853.00
2022-11-16T06:39:00.184Z,94852.38
2022-11-16T06:41:28.636Z,94839.78
2022-11-16T06:43:55.688Z,94840.84
2022-11-16T06:46:27.972Z,94853.25
2022-11-16T06:48:56.410Z,94845.56
2022-11-16T06:51:23.094Z,94827.00
2022-11-16T06:53:49.713Z,94842.81
2022-11-16T06:56:16.447Z,94785.00
2022-11-16T06:58:53.076Z,94842.91
2022-11-16T07:01:20.355Z,94832.53
2022-11-16T07:03:48.891Z,94829.34
2022-11-16T07:06:16.504Z,94834.41
2022-11-16T07:08:45.738Z,94857.50
2022-11-16T07:11:15.352Z,94847.00
2022-11-16T07:13:42.900Z,94832.59
2022-11-16T07:16:11.562Z,94849.38
2022-11-16T07:18:43.019Z,94844.41
2022-11-16T07:21:16.174Z,94844.34
2022-11-16T07:23:43.821Z,94842.63
2022-11-16T07:26:13.747Z,94839.88
2022-11-16T07:28:48.865Z,94830.72
2022-11-16T07:31:19.400Z,94843.53
2022-11-16T07:33:46.433Z,94840.59
2022-11-16T07:36:31.316Z,94847.06
2022-11-16T07:38:58.187Z,94845.78
2022-11-16T07:41:24.913Z,94850.22
2022-11-16T07:44:11.755Z,94846.75
2022-11-16T07:46:48.561Z,94843.16
2022-11-16T07:49:18.860Z,94851.97
2022-11-16T07:51:52.797Z,94854.09
2022-11-16T07:54:51.655Z,94847.53
2022-11-16T07:57:20.576Z,94855.94
2022-11-16T07:59:47.990Z,94853.91
2022-11-16T08:02:14.624Z,94854.72
2022-11-16T08:04:43.232Z,94859.16
2022-11-16T08:07:10.187Z,94860.69
2022-11-16T08:09:43.520Z,94854.44
2022-11-16T08:12:13.337Z,94858.06
2022-11-16T08:14:39.960Z,94858.16
2022-11-16T08:17:08.302Z,94859.72
2022-11-16T08:19:36.599Z,94859.03
2022-11-16T08:22:03.810Z,94858.41
2022-11-16T08:24:32.982Z,94850.03
2022-11-16T08:26:59.660Z,94853.44
2022-11-16T08:29:27.014Z,94863.06
2022-11-16T08:31:56.155Z,94859.63
2022-11-16T08:34:23.120Z,94863.28
2022-11-16T08:36:53.331Z,94856.91
2022-11-16T08:39:25.849Z,94859.84
2022-11-16T08:41:52.622Z,94859.19
2022-11-16T08:44:19.715Z,94857.88
2022-11-16T08:46:50.998Z,94863.72
2022-11-16T08:49:28.829Z,94865.25
2022-11-16T08:51:56.146Z,94859.63
2022-11-16T08:54:22.865Z,94862.59
2022-11-16T08:56:49.529Z,94861.38
2022-11-16T08:59:17.945Z,94870.81
2022-11-16T09:01:50.232Z,94863.16
2022-11-16T09:04:18.680Z,94866.84
2022-11-16T09:06:45.472Z,94864.81
2022-11-16T09:09:12.006Z,94876.25
2022-11-16T09:11:38.552Z,94866.56
2022-11-16T09:14:05.059Z,94872.38
2022-11-16T09:16:31.571Z,94874.69
2022-11-16T09:18:58.090Z,94873.47
2022-11-16T09:21:27.223Z,94874.25
2022-11-16T09:23:55.368Z,94874.91
2022-11-16T09:26:23.318Z,94884.50
2022-11-16T09:28:59.257Z,94891.00
2022-11-16T09:31:31.273Z,94881.22
2022-11-16T09:33:58.863Z,94878.63
2022-11-16T09:36:29.430Z,94878.75
2022-11-16T09:41:49.821Z,94881.28
2022-11-16T09:44:16.362Z,94882.88
2022-11-16T09:46:58.477Z,94886.56
2022-11-16T09:49:39.679Z,94886.72
2022-11-16T09:52:14.386Z,94893.44
2022-11-16T09:54:43.026Z,94888.63
2022-11-16T09:57:15.793Z,94901.66
2022-11-16T09:59:49.649Z,94893.88
2022-11-16T10:02:26.378Z,94884.75
2022-11-16T10:05:03.049Z,94891.38
2022-11-16T10:07:42.431Z,94895.06
2022-11-16T10:10:14.439Z,94894.47
2022-11-16T10:12:44.005Z,94885.25
2022-11-16T10:15:24.146Z,94887.44
2022-11-16T10:17:59.495Z,94886.16
2022-11-16T10:21:03.586Z,94889.78
2022-11-16T10:24:08.219Z,94882.09
2022-11-16T10:26:59.488Z,94892.09
2022-11-16T10:29:36.397Z,94886.47
2022-11-16T10:32:18.260Z,94886.53
2022-11-16T10:34:56.411Z,94886.59
2022-11-16T10:37:29.479Z,94877.38
2022-11-16T10:39:56.085Z,94872.28
2022-11-16T10:42:35.855Z,94877.50
2022-11-16T10:45:34.879Z,94877.56
2022-11-16T10:48:14.509Z,94871.72
2022-11-16T10:50:46.139Z,94874.00
2022-11-16T10:53:15.051Z,94871.91
2022-11-16T10:55:42.105Z,94876.22
2022-11-16T10:58:08.669Z,94880.50
2022-11-16T11:00:51.693Z,94879.19
2022-11-16T11:03:32.394Z,94864.06
2022-11-16T11:05:59.705Z,94858.41
2022-11-16T11:08:30.541Z,94875.84
2022-11-16T11:11:01.842Z,94867.34
2022-11-16T11:13:29.311Z,94869.44
2022-11-16T11:16:15.950Z,94862.41
2022-11-16T11:18:42.487Z,94865.34
2022-11-16T11:21:19.891Z,94856.06
2022-11-16T11:23:59.463Z,94861.91
2022-11-16T11:26:41.185Z,94863.34
2022-11-16T11:29:30.686Z,94858.41
2022-11-16T11:32:05.064Z,94848.47
2022-11-16T11:34:47.211Z,94859.97
2022-11-16T11:37:17.933Z,94855.06
2022-11-16T11:39:44.875Z,94857.97
2022-11-16T11:42:14.466Z,94860.81
2022-11-16T11:44:44.912Z,94863.75
2022-11-16T11:47:59.630Z,94858.81
2022-11-16T11:50:38.748Z,94860.34
2022-11-16T11:53:15.330Z,94870.47
2022-11-16T11:55:41.984Z,94861.25
2022-11-16T11:58:16.785Z,94864.91
2022-11-16T12:01:04.209Z,94867.81
2022-11-16T12:03:45.607Z,94866.53
2022-11-16T12:06:27.249Z,94867.28
2022-11-16T12:09:06.109Z,94863.84
2022-11-16T12:12:46.878Z,94866.06
2022-11-16T12:15:39.443Z,94864.00
2022-11-16T12:18:24.722Z,94862.63
2022-11-16T12:21:13.183Z,94864.16
2022-11-16T12:24:11.240Z,94848.22
2022-11-16T12:27:07.016Z,94854.97
2022-11-16T12:29:42.812Z,94856.41
2022-11-16T12:32:23.591Z,94856.53
2022-11-16T12:35:09.388Z,94852.94
2022-11-16T12:38:14.201Z,94845.16
2022-11-16T12:40:55.712Z,94847.31
2022-11-16T12:43:44.346Z,94846.59
2022-11-16T12:46:29.195Z,94844.50
2022-11-16T12:49:04.728Z,94848.91
2022-11-16T12:51:52.337Z,94845.31
2022-11-16T12:54:27.571Z,94841.78
2022-11-16T12:57:29.291Z,94847.56
2022-11-16T13:00:08.102Z,94837.41
2022-11-16T13:03:00.692Z,94832.38
2022-11-16T13:05:42.256Z,94827.28
2022-11-16T13:08:34.881Z,94826.53
2022-11-16T13:11:15.656Z,94830.09
2022-11-16T13:13:46.848Z,94831.44
2022-11-16T13:16:20.435Z,94829.38
2022-11-16T13:18:47.328Z,94827.97
2022-11-16T13:21:34.055Z,94834.44
2022-11-16T13:24:26.622Z,94833.88
2022-11-16T13:27:14.925Z,94836.06
2022-11-16T13:29:52.860Z,94840.44
2022-11-16T13:32:36.393Z,94831.91
2022-11-16T13:35:11.550Z,94831.19
2022-11-16T13:37:38.107Z,94831.19
2022-11-16T13:40:04.892Z,94826.91
2022-11-16T13:42:34.316Z,94834.13
2022-11-16T13:45:15.467Z,94834.06
2022-11-16T13:47:51.444Z,94836.97
2022-11-16T13:50:22.279Z,94818.25
2022-11-16T13:54:10.860Z,94820.59
2022-11-16T13:55:44.028Z,94821.34
2022-11-16T13:58:19.936Z,94822.81
2022-11-16T14:00:57.745Z,94818.53
2022-11-16T14:03:38.240Z,94817.13
2022-11-16T14:06:43.425Z,94807.16
2022-11-16T14:09:46.390Z,94812.16
2022-11-16T14:12:38.744Z,94812.88
2022-11-16T14:15:17.836Z,94815.03
2022-11-16T14:18:07.108Z,94811.47
2022-11-16T14:25:13.133Z,94800.66
2022-11-16T14:27:53.550Z,94798.44
2022-11-16T14:30:25.659Z,94807.75
2022-11-16T14:32:55.178Z,94801.94
2022-11-16T14:35:35.051Z,94800.44
2022-11-16T14:38:07.963Z,94793.84
2022-11-16T14:40:53.559Z,94790.38
2022-11-16T14:43:38.613Z,94798.81
2022-11-16T14:46:09.260Z,94793.81
2022-11-16T14:48:43.963Z,94795.16
2022-11-16T14:51:15.036Z,94809.44
2022-11-16T14:53:49.647Z,94801.59
2022-11-16T14:56:18.306Z,94796.63
2022-11-16T14:58:59.177Z,94788.75
2022-11-16T15:01:35.736Z,94790.13
2022-11-16T15:04:06.103Z,94787.34
2022-11-16T15:07:01.945Z,94786.53
2022-11-16T15:09:39.373Z,94790.75
2022-11-16T15:12:33.015Z,94785.00
2022-11-16T15:15:06.640Z,94782.09
2022-11-16T15:17:33.704Z,94780.53
2022-11-16T15:20:04.448Z,94786.19
2022-11-16T15:22:39.206Z,94786.91
2022-11-16T15:25:06.482Z,94785.31
2022-11-16T15:27:42.209Z,94770.16
2022-11-16T15:30:16.440Z,94777.16
2022-11-16T15:32:44.075Z,94769.94
2022-11-16T15:35:27.956Z,94764.03
2022-11-16T15:38:26.107Z,94759.00
2022-11-16T15:40:56.049Z,94765.44
2022-11-16T15:43:26.508Z,94777.53
2022-11-16T15:45:53.840Z,94768.78
2022-11-16T15:48:25.240Z,94770.66
2022-11-16T15:51:05.063Z,94770.97
2022-11-16T15:53:44.970Z,94771.59
2022-11-16T15:56:17.798Z,94767.91
2022-11-16T15:58:46.405Z,94764.31
2022-11-16T16:01:15.272Z,94769.97
2022-11-16T16:04:05.848Z,94768.25
2022-11-16T16:06:53.608Z,94759.53
2022-11-16T16:09:28.684Z,94763.06
2022-11-16T16:12:18.392Z,94765.06
2022-11-16T16:14:45.847Z,94746.09
2022-11-16T16:17:28.078Z,94766.22
2022-11-16T16:20:03.542Z,94772.53
2022-11-16T16:22:37.121Z,94758.78
2022-11-16T16:25:25.396Z,94759.97
2022-11-16T16:27:52.005Z,94766.19
2022-11-16T16:30:18.589Z,94760.84
2022-11-16T16:32:49.687Z,94753.41
2022-11-16T16:35:18.676Z,94765.56
2022-11-16T16:37:48.867Z,94746.78
2022-11-16T16:40:16.955Z,94763.88
2022-11-16T16:42:44.066Z,94770.72
2022-11-16T16:45:41.779Z,94761.34
2022-11-16T16:48:09.439Z,94759.06
2022-11-16T16:50:36.416Z,94761.91
2022-11-16T16:53:03.002Z,94771.13
2022-11-16T16:55:32.889Z,94771.03
2022-11-16T16:58:02.879Z,94768.88
2022-11-16T17:00:29.387Z,94763.53
2022-11-16T17:02:56.157Z,94767.75
2022-11-16T17:05:22.744Z,94762.56
2022-11-16T17:07:49.312Z,94761.69
2022-11-16T17:10:16.868Z,94754.28
2022-11-16T17:12:43.686Z,94760.50
2022-11-16T17:15:12.857Z,94759.50
2022-11-16T17:17:43.263Z,94753.03
2022-11-16T17:20:11.507Z,94750.09
2022-11-16T17:22:38.303Z,94748.59
2022-11-16T17:25:05.573Z,94759.97
2022-11-16T17:27:32.827Z,94756.09
2022-11-16T17:29:59.463Z,94753.84
2022-11-16T17:32:26.166Z,94753.78
2022-11-16T17:34:52.819Z,94739.44
2022-11-16T17:37:19.621Z,94747.41
2022-11-16T17:39:46.176Z,94748.75
2022-11-16T17:42:12.710Z,94729.44
2022-11-16T17:44:39.405Z,94732.72
2022-11-16T17:47:07.384Z,94733.91
2022-11-16T17:49:33.997Z,94720.97
2022-11-16T17:52:01.716Z,94728.31
2022-11-16T17:54:28.677Z,94725.47
2022-11-16T17:56:55.741Z,94726.78
2022-11-16T17:59:27.935Z,94725.84
2022-11-16T18:01:57.769Z,94733.56
2022-11-16T18:04:24.791Z,94726.22
2022-11-16T18:06:51.816Z,94724.84
2022-11-16T18:09:19.038Z,94729.06
2022-11-16T18:11:46.067Z,94726.38
2022-11-16T18:14:13.081Z,94719.09
2022-11-16T18:16:42.393Z,94725.50
2022-11-16T18:19:10.003Z,94716.31
2022-11-16T18:21:41.671Z,94720.47
2022-11-16T18:24:09.375Z,94718.66
2022-11-16T18:26:36.519Z,94724.72
2022-11-16T18:29:04.203Z,94724.59
2022-11-16T18:31:33.197Z,94717.38
2022-11-16T18:34:03.167Z,94705.13
2022-11-16T18:36:30.073Z,94687.22
2022-11-16T18:38:57.029Z,94680.81
2022-11-16T18:41:29.200Z,94682.63
2022-11-16T18:44:00.029Z,94689.75
2022-11-16T18:46:32.189Z,94683.88
2022-11-16T18:49:00.149Z,94688.16
2022-11-16T18:51:28.543Z,94677.47
2022-11-16T18:53:55.914Z,94664.28
2022-11-16T18:56:24.174Z,94668.75
2022-11-16T18:58:52.900Z,94660.16
2022-11-16T19:01:25.259Z,94669.25
2022-11-16T19:03:53.725Z,94661.00
2022-11-16T19:06:21.679Z,94672.44
2022-11-16T19:08:55.735Z,94672.97
2022-11-16T19:11:23.947Z,94663.13
2022-11-16T19:13:57.027Z,94658.19
2022-11-16T19:16:24.588Z,94655.94
2022-11-16T19:18:51.819Z,94645.88
2022-11-16T19:21:19.311Z,94655.19
2022-11-16T19:23:51.137Z,94657.97
2022-11-16T19:26:20.284Z,94655.63
2022-11-16T19:28:48.813Z,94651.91
2022-11-16T19:31:27.268Z,94649.00
2022-11-16T19:33:58.921Z,94644.56
2022-11-16T19:36:27.400Z,94634.38
2022-11-16T19:38:54.097Z,94644.13
2022-11-16T19:41:22.418Z,94631.09
2022-11-16T19:43:52.739Z,94635.94
2022-11-16T19:46:24.534Z,94628.81
2022-11-16T19:48:51.725Z,94629.38
2022-11-16T19:51:19.844Z,94633.59
2022-11-16T19:53:47.146Z,94622.78
2022-11-16T19:56:15.593Z,94610.47
2022-11-16T19:58:42.423Z,94622.03
2022-11-16T20:01:14.322Z,94626.19
2022-11-16T20:03:41.895Z,94618.97
2022-11-16T20:06:13.664Z,94612.44
2022-11-16T20:08:41.667Z,94617.13
2022-11-16T20:11:16.238Z,94611.16
2022-11-16T20:13:43.087Z,94612.53
2022-11-16T20:16:12.227Z,94617.38
2022-11-16T20:18:41.403Z,94619.44
2022-11-16T20:21:11.615Z,94605.19
2022-11-16T20:23:38.235Z,94605.81
2022-11-16T20:26:09.370Z,94606.34
2022-11-16T20:28:38.218Z,94613.38
2022-11-16T20:31:10.687Z,94618.16
2022-11-16T20:33:37.994Z,94617.75
2022-11-16T20:36:08.089Z,94616.91
2022-11-16T20:38:35.998Z,94629.31
2022-11-16T20:41:08.862Z,94618.44
2022-11-16T20:43:36.150Z,94603.97
2022-11-16T20:46:03.121Z,94606.00
2022-11-16T20:48:29.701Z,94584.31
2022-11-16T20:50:56.419Z,94607.22
2022-11-16T20:53:23.152Z,94608.59
2022-11-16T20:55:50.211Z,94594.41
2022-11-16T20:58:22.420Z,94595.09
2022-11-16T21:00:50.283Z,94595.16
2022-11-16T21:03:17.203Z,94604.38
2022-11-16T21:05:45.196Z,94598.72
2022-11-16T21:08:13.094Z,94591.34
2022-11-16T21:10:40.162Z,94598.22
2022-11-16T21:13:31.796Z,94617.25
2022-11-16T21:16:00.772Z,94613.25
2022-11-16T21:18:30.860Z,94606.06
2022-11-16T21:21:02.802Z,94610.34
2022-11-16T21:23:31.981Z,94595.88
2022-11-16T21:26:03.901Z,94604.75
2022-11-16T21:28:30.796Z,94610.91
2022-11-16T21:30:59.486Z,94622.06
2022-11-16T21:33:26.809Z,94620.44
2022-11-16T21:35:54.561Z,94623.19
2022-11-16T21:38:22.695Z,94634.84
2022-11-16T21:40:49.830Z,94615.38
2022-11-16T21:43:17.050Z,94623.19
2022-11-16T21:45:45.445Z,94615.38
2022-11-16T21:48:12.727Z,94610.25
2022-11-16T21:50:39.703Z,94616.94
2022-11-16T21:53:07.461Z,94603.50
2022-11-16T21:55:34.484Z,94601.50
2022-11-16T21:58:03.431Z,94591.88
2022-11-16T22:00:30.525Z,94573.50
2022-11-16T22:02:57.129Z,94568.97
2022-11-16T22:05:42.300Z,94564.44
2022-11-16T22:08:11.715Z,94566.72
2022-11-16T22:10:38.389Z,94562.00
2022-11-16T22:13:05.512Z,94570.84
2022-11-16T22:15:32.078Z,94570.09
2022-11-16T22:18:00.978Z,94581.34
2022-11-16T22:20:27.713Z,94568.41
2022-11-16T22:22:54.332Z,94570.56
2022-11-16T22:25:20.863Z,94564.81
2022-11-16T22:28:13.771Z,94594.75
2022-11-16T22:30:36.616Z,94594.75
2022-11-16T22:33:03.186Z,94591.03
2022-11-16T22:35:29.798Z,94579.88
2022-11-16T22:37:56.408Z,94563.13
2022-11-16T22:40:23.989Z,94571.84
2022-11-16T22:42:50.594Z,94555.63
2022-11-16T22:45:17.234Z,94551.16
2022-11-16T22:47:43.768Z,94558.28
2022-11-16T22:50:10.374Z,94550.34
2022-11-16T22:52:38.089Z,94560.59
2022-11-16T22:55:04.967Z,94554.59
2022-11-16T22:57:33.580Z,94561.16
2022-11-16T23:00:00.117Z,94550.69
2022-11-16T23:02:26.851Z,94548.59
2022-11-16T23:04:53.395Z,94549.41
2022-11-16T23:07:19.940Z,94548.75
2022-11-16T23:09:46.600Z,94542.94
2022-11-16T23:12:31.801Z,94513.44
2022-11-16T23:15:18.002Z,94529.81
2022-11-16T23:17:45.482Z,94522.72
2022-11-16T23:20:50.203Z,94519.16
2022-11-16T23:23:38.415Z,94516.34
2022-11-16T23:26:30.170Z,94521.09
2022-11-16T23:28:56.886Z,94523.84
2022-11-16T23:31:23.612Z,94520.91
2022-11-16T23:33:50.172Z,94507.81
2022-11-16T23:36:16.701Z,94516.38
2022-11-16T23:38:43.402Z,94506.91
2022-11-16T23:41:28.532Z,94513.38
2022-11-16T23:43:57.903Z,94504.25
2022-11-16T23:46:29.736Z,94502.25
2022-11-16T23:48:57.568Z,94502.88
2022-11-16T23:51:25.122Z,94497.78
2022-11-16T23:53:52.928Z,94499.69
2022-11-16T23:56:21.034Z,94489.22
2022-11-16T23:58:48.699Z,94469.03
